Time;durP1;ratioP1;P1;durP2;ratioP2;P2;SDS_P1;SDS_P2;PMS_P1;PMS_P2;Temp;Humidity;BMP_temperature;BMP_pressure;BME280_temperature;BME280_humidity;BME280_pressure;Samples;Min_cycle;Max_cycle;Signal;HPM_P1;HPM_P2
2024/01/19 00:02:03;;;;;;;21.75;8.50;;;;;;;-1.39;100.00;101066.16;5046992;28;20041;-47
2024/01/19 00:04:31;;;;;;;16.10;9.13;;;;;;;-1.40;100.00;101069.13;5039408;28;20060;-46
2024/01/19 00:06:58;;;;;;;16.42;10.32;;;;;;;-1.39;100.00;101066.16;5048767;28;20415;-45
2024/01/19 00:09:25;;;;;;;13.57;8.63;;;;;;;-1.38;100.00;101070.50;5030470;28;20775;-46
2024/01/19 00:11:53;;;;;;;13.55;8.18;;;;;;;-1.38;100.00;101064.28;5048336;28;20871;-45
2024/01/19 00:14:21;;;;;;;21.92;9.52;;;;;;;-1.38;100.00;101066.97;5030629;28;20427;-48
2024/01/19 00:16:48;;;;;;;16.73;9.60;;;;;;;-1.41;100.00;101062.88;5038775;28;20067;-50
2024/01/19 00:19:15;;;;;;;22.35;10.65;;;;;;;-1.41;100.00;101070.22;5046878;28;20483;-49
2024/01/19 00:21:43;;;;;;;26.58;14.27;;;;;;;-1.40;100.00;101074.53;5048103;28;20391;-47
2024/01/19 00:24:14;;;;;;;25.63;13.65;;;;;;;-1.42;100.00;101061.25;5033290;28;20038;-47
2024/01/19 00:26:44;;;;;;;23.02;11.50;;;;;;;-1.42;100.00;101071.28;5046612;28;20414;-46
2024/01/19 00:29:11;;;;;;;17.50;9.93;;;;;;;-1.44;100.00;101074.25;5045179;28;20403;-48
2024/01/19 00:31:39;;;;;;;11.65;7.53;;;;;;;-1.46;100.00;101070.16;5047927;28;20053;-49
2024/01/19 00:34:06;;;;;;;18.17;9.18;;;;;;;-1.46;100.00;101081.03;5047855;28;20495;-47
2024/01/19 00:36:34;;;;;;;14.90;8.48;;;;;;;-1.45;100.00;101085.38;5028597;28;20053;-47
2024/01/19 00:39:01;;;;;;;15.55;9.85;;;;;;;-1.46;100.00;101083.75;5040494;28;20049;-47
2024/01/19 00:41:29;;;;;;;18.33;8.35;;;;;;;-1.48;100.00;101083.16;5032343;28;20500;-47
2024/01/19 00:43:57;;;;;;;15.30;7.97;;;;;;;-1.48;100.00;101083.16;5047040;28;20514;-49
2024/01/19 00:46:24;;;;;;;14.95;8.18;;;;;;;-1.49;100.00;101081.53;5034525;28;20679;-46
2024/01/19 00:48:51;;;;;;;18.30;8.70;;;;;;;-1.50;100.00;101086.16;5045522;28;20400;-48
2024/01/19 00:51:19;;;;;;;15.25;8.40;;;;;;;-1.50;100.00;101090.75;5034843;28;20045;-48
2024/01/19 00:53:47;;;;;;;16.27;8.02;;;;;;;-1.50;100.00;101088.84;5047942;28;20040;-47
2024/01/19 00:56:15;;;;;;;14.13;7.13;;;;;;;-1.49;100.00;101089.69;5047145;28;20410;-48
2024/01/19 00:58:44;;;;;;;12.63;7.53;;;;;;;-1.51;100.00;101089.94;5039548;28;20545;-47
2024/01/19 01:01:13;;;;;;;14.63;8.15;;;;;;;-1.49;100.00;101093.22;5044436;28;20060;-49
2024/01/19 01:03:41;;;;;;;12.35;8.75;;;;;;;-1.48;100.00;101091.31;5040950;28;20138;-46
2024/01/19 01:06:09;;;;;;;11.75;7.75;;;;;;;-1.48;100.00;101099.44;5047335;28;20056;-46
2024/01/19 01:08:36;;;;;;;11.82;7.15;;;;;;;-1.48;100.00;101094.84;5046957;28;20084;-50
2024/01/19 01:11:05;;;;;;;11.00;7.57;;;;;;;-1.48;100.00;101097.56;5047168;28;20041;-49
2024/01/19 01:13:33;;;;;;;11.98;6.70;;;;;;;-1.46;100.00;101094.59;5046611;28;20041;-47
2024/01/19 01:16:01;;;;;;;13.77;7.88;;;;;;;-1.48;100.00;101094.84;5043516;28;20049;-45
2024/01/19 01:18:28;;;;;;;13.63;6.75;;;;;;;-1.49;100.00;101098.66;5039864;28;20041;-47
2024/01/19 01:20:57;;;;;;;10.05;6.25;;;;;;;-1.49;100.00;101095.13;5047117;28;20067;-46
2024/01/19 01:23:25;;;;;;;10.75;6.30;;;;;;;-1.49;100.00;101098.66;5046797;28;20044;-46
2024/01/19 01:25:52;;;;;;;11.13;6.57;;;;;;;-1.49;100.00;101097.84;5046964;28;20450;-48
2024/01/19 01:28:20;;;;;;;8.43;5.70;;;;;;;-1.49;100.00;101092.41;5047276;28;20053;-48
2024/01/19 01:30:47;;;;;;;14.40;6.00;;;;;;;-1.49;100.00;101092.41;5028832;28;20067;-48
2024/01/19 01:33:15;;;;;;;9.30;5.18;;;;;;;-1.48;100.00;101100.28;5047314;28;20052;-47
2024/01/19 01:35:42;;;;;;;8.45;5.65;;;;;;;-1.48;100.00;101102.16;5046803;28;20049;-50
2024/01/19 01:38:10;;;;;;;15.23;6.20;;;;;;;-1.48;100.00;101108.41;5046975;28;20045;-50
2024/01/19 01:40:37;;;;;;;8.05;5.13;;;;;;;-1.48;100.00;101102.16;5028558;28;20751;-43
2024/01/19 01:43:06;;;;;;;7.95;5.30;;;;;;;-1.48;100.00;101100.28;5046679;28;20048;-45
2024/01/19 01:45:35;;;;;;;10.55;6.00;;;;;;;-1.47;100.00;101101.94;5047391;28;20045;-46
2024/01/19 01:48:03;;;;;;;6.75;4.70;;;;;;;-1.45;100.00;101105.19;5046290;28;20041;-46
2024/01/19 01:50:31;;;;;;;6.72;5.15;;;;;;;-1.46;100.00;101094.59;5046858;28;20089;-44
2024/01/19 01:52:58;;;;;;;9.85;5.13;;;;;;;-1.44;100.00;101100.59;5047158;28;20049;-48
2024/01/19 01:55:26;;;;;;;9.40;4.85;;;;;;;-1.46;100.00;101091.88;5047026;28;20570;-43
2024/01/19 01:57:53;;;;;;;14.65;6.57;;;;;;;-1.45;100.00;101088.91;5046259;28;20053;-47
2024/01/19 02:00:21;;;;;;;7.40;4.20;;;;;;;-1.44;100.00;101100.59;5029639;28;20042;-49
2024/01/19 02:02:52;;;;;;;5.25;3.92;;;;;;;-1.45;100.00;101093.50;5046735;28;20056;-44
2024/01/19 02:05:19;;;;;;;5.45;4.22;;;;;;;-1.45;100.00;101088.06;5047203;28;20403;-48
2024/01/19 02:07:47;;;;;;;7.45;6.05;;;;;;;-1.45;100.00;101093.50;5046501;28;20049;-46
2024/01/19 02:10:14;;;;;;;9.13;4.00;;;;;;;-1.46;100.00;101091.88;5046102;28;20049;-46
2024/01/19 02:12:42;;;;;;;7.28;4.40;;;;;;;-1.46;100.00;101097.31;5050652;28;20075;-47
2024/01/19 02:15:20;;;;;;;5.55;3.90;;;;;;;-1.47;100.00;101092.97;5050964;28;20718;-47
2024/01/19 02:17:49;;;;;;;10.43;3.85;;;;;;;-1.48;100.00;101097.56;5038614;28;20056;-48
2024/01/19 02:20:17;;;;;;;7.68;3.90;;;;;;;-1.50;100.00;101098.91;5050297;28;20056;-46
2024/01/19 02:22:46;;;;;;;10.32;3.90;;;;;;;-1.50;100.00;101096.19;5037533;28;20060;-46
2024/01/19 02:25:14;;;;;;;9.57;3.80;;;;;;;-1.52;100.00;101095.63;5050567;28;20060;-48
2024/01/19 02:27:41;;;;;;;13.07;4.15;;;;;;;-1.53;100.00;101088.53;5050368;28;20057;-47
2024/01/19 02:30:10;;;;;;;5.70;3.53;;;;;;;-1.52;100.00;101098.34;5050320;28;20053;-45
2024/01/19 02:32:38;;;;;;;5.60;3.47;;;;;;;-1.52;100.00;101095.63;5042279;28;20052;-46
2024/01/19 02:35:06;;;;;;;4.97;3.00;;;;;;;-1.52;100.00;101095.63;5044373;28;20502;-43
2024/01/19 02:37:33;;;;;;;6.35;3.40;;;;;;;-1.54;100.00;101093.19;5050294;28;20052;-49
2024/01/19 02:40:01;;;;;;;4.88;2.97;;;;;;;-1.53;100.00;101092.09;5050544;28;20522;-44
2024/01/19 02:42:30;;;;;;;7.18;3.40;;;;;;;-1.52;100.00;101098.34;5032114;28;20048;-50
2024/01/19 02:45:01;;;;;;;6.85;3.97;;;;;;;-1.51;100.00;101097.28;5050136;28;20052;-49
2024/01/19 02:47:29;;;;;;;6.10;2.65;;;;;;;-1.51;100.00;101100.00;5049911;28;20053;-47
2024/01/19 02:49:59;;;;;;;5.03;2.50;;;;;;;-1.50;100.00;101098.91;5049307;28;20045;-50
2024/01/19 02:52:26;;;;;;;4.15;2.33;;;;;;;-1.49;100.00;101095.13;5049912;28;20057;-49
2024/01/19 02:54:53;;;;;;;4.85;3.00;;;;;;;-1.49;100.00;101086.97;5031406;28;20056;-45
2024/01/19 02:57:21;;;;;;;4.70;2.50;;;;;;;-1.47;100.00;101087.53;5032076;28;20144;-45
2024/01/19 02:59:48;;;;;;;6.07;2.30;;;;;;;-1.47;100.00;101095.66;5049863;28;20045;-44
2024/01/19 03:02:15;;;;;;;6.20;2.72;;;;;;;-1.46;100.00;101091.88;5049643;28;20056;-49
2024/01/19 03:04:43;;;;;;;7.22;2.95;;;;;;;-1.45;100.00;101078.03;5049067;28;20041;-44
2024/01/19 03:07:11;;;;;;;5.35;2.53;;;;;;;-1.46;100.00;101092.72;5050259;28;20045;-47
2024/01/19 03:09:38;;;;;;;3.47;2.92;;;;;;;-1.44;100.00;101081.59;5042002;28;20057;-46
2024/01/19 03:12:06;;;;;;;6.35;2.33;;;;;;;-1.44;100.00;101087.84;5049702;28;20049;-51
2024/01/19 03:14:35;;;;;;;5.38;2.28;;;;;;;-1.43;100.00;101085.94;5049407;28;20430;-50
2024/01/19 03:17:04;;;;;;;6.60;2.90;;;;;;;-1.43;100.00;101075.09;5048755;28;20052;-49
2024/01/19 03:19:32;;;;;;;3.47;2.13;;;;;;;-1.42;100.00;101076.72;5036714;28;20057;-48
2024/01/19 03:21:59;;;;;;;3.08;1.90;;;;;;;-1.42;100.00;101071.28;5049734;28;20049;-47
2024/01/19 03:24:27;;;;;;;4.70;2.22;;;;;;;-1.41;100.00;101075.63;5049241;28;20060;-49
2024/01/19 03:26:54;;;;;;;10.40;2.97;;;;;;;-1.41;100.00;101078.34;5049435;28;20052;-47
2024/01/19 03:29:22;;;;;;;5.35;2.58;;;;;;;-1.43;100.00;101081.31;5049144;28;20045;-44
2024/01/19 03:31:50;;;;;;;4.00;1.98;;;;;;;-1.43;100.00;101069.66;5048705;28;20049;-48
2024/01/19 03:34:17;;;;;;;3.35;2.17;;;;;;;-1.41;100.00;101072.94;5048868;28;20048;-47
2024/01/19 03:36:45;;;;;;;5.97;2.22;;;;;;;-1.39;100.00;101070.75;5048351;28;20048;-46
2024/01/19 03:39:13;;;;;;;4.40;3.30;;;;;;;-1.39;100.00;101058.00;5046829;28;20051;-44
2024/01/19 03:41:41;;;;;;;5.35;2.42;;;;;;;-1.38;100.00;101065.06;5030232;28;20048;-46
2024/01/19 03:44:09;;;;;;;3.97;2.78;;;;;;;-1.37;100.00;101064.00;5048096;28;20737;-44
2024/01/19 03:46:36;;;;;;;4.25;2.08;;;;;;;-1.38;100.00;101053.41;5046752;28;20044;-45
2024/01/19 03:49:03;;;;;;;6.22;3.03;;;;;;;-1.38;100.00;101067.78;5048475;28;20044;-48
2024/01/19 03:51:30;;;;;;;3.35;2.30;;;;;;;-1.37;100.00;101060.44;5047750;28;20052;-46
2024/01/19 03:53:58;;;;;;;8.32;1.80;;;;;;;-1.37;100.00;101057.75;5048659;28;20052;-48
2024/01/19 03:56:25;;;;;;;11.05;3.85;;;;;;;-1.37;100.00;101068.59;5046210;28;20460;-49
2024/01/19 03:58:53;;;;;;;4.07;2.08;;;;;;;-1.36;100.00;101065.66;5044993;28;20049;-49
2024/01/19 04:01:20;;;;;;;4.15;2.28;;;;;;;-1.36;100.00;101070.25;5030355;28;20053;-45
2024/01/19 04:03:47;;;;;;;4.50;2.45;;;;;;;-1.36;100.00;101070.25;5030473;28;20048;-51
2024/01/19 04:06:15;;;;;;;4.88;1.88;;;;;;;-1.36;100.00;101072.97;5048190;28;20384;-46
2024/01/19 04:08:43;;;;;;;14.45;2.58;;;;;;;-1.37;100.00;101076.75;5046389;28;20052;-45
2024/01/19 04:11:11;;;;;;;4.57;1.75;;;;;;;-1.37;100.00;101077.56;5030100;28;20041;-47
2024/01/19 04:13:38;;;;;;;9.52;2.60;;;;;;;-1.37;100.00;101076.75;5047737;28;20048;-49
2024/01/19 04:16:05;;;;;;;6.82;3.10;;;;;;;-1.37;100.00;101074.03;5047904;28;20053;-45
2024/01/19 04:18:34;;;;;;;5.65;2.90;;;;;;;-1.36;100.00;101070.25;5031353;28;20049;-45
2024/01/19 04:21:02;;;;;;;4.10;1.98;;;;;;;-1.36;100.00;101072.97;5048003;28;20045;-48
2024/01/19 04:23:30;;;;;;;6.63;2.05;;;;;;;-1.35;100.00;101071.91;5030029;28;20411;-44
2024/01/19 04:25:57;;;;;;;7.80;2.05;;;;;;;-1.33;100.00;101072.47;5035565;28;20049;-49
2024/01/19 04:28:25;;;;;;;5.38;2.50;;;;;;;-1.32;100.00;101072.19;5048185;28;20051;-49
2024/01/19 04:30:52;;;;;;;8.35;2.35;;;;;;;-1.31;100.00;101076.53;5047780;28;20499;-44
2024/01/19 04:33:19;;;;;;;11.80;2.78;;;;;;;-1.31;100.00;101078.44;5047164;28;20056;-49
2024/01/19 04:35:47;;;;;;;7.75;2.97;;;;;;;-1.32;100.00;101077.63;5047159;28;20053;-48
2024/01/19 04:38:14;;;;;;;5.45;2.53;;;;;;;-1.31;100.00;101086.59;5047755;28;20667;-47
2024/01/19 04:40:41;;;;;;;6.25;2.75;;;;;;;-1.30;100.00;101077.38;5046287;28;20055;-47
2024/01/19 04:43:08;;;;;;;8.77;2.50;;;;;;;-1.30;100.00;101093.66;5030496;28;20056;-47
2024/01/19 04:45:37;;;;;;;6.80;2.90;;;;;;;-1.27;100.00;101093.13;5040696;28;20045;-48
2024/01/19 04:48:06;;;;;;;7.32;3.13;;;;;;;-1.25;100.00;101089.09;5048402;28;20036;-46
2024/01/19 04:50:34;;;;;;;4.82;2.15;;;;;;;-1.25;100.00;101093.72;5040512;28;20054;-46
2024/01/19 04:53:01;;;;;;;7.13;2.75;;;;;;;-1.23;100.00;101096.97;5043072;28;20410;-47
2024/01/19 04:55:28;;;;;;;5.70;2.15;;;;;;;-1.25;100.00;101097.25;5046365;28;20053;-49
2024/01/19 04:57:56;;;;;;;4.28;1.77;;;;;;;-1.23;100.00;101107.84;5046929;28;20057;-46
2024/01/19 05:00:23;;;;;;;4.28;1.52;;;;;;;-1.23;100.00;101099.69;5046522;28;20041;-46
2024/01/19 05:02:50;;;;;;;9.60;1.80;;;;;;;-1.22;100.00;101099.41;5047384;28;20053;-47
2024/01/19 05:05:18;;;;;;;4.43;1.85;;;;;;;-1.20;100.00;101095.63;5037743;28;20048;-48
2024/01/19 05:07:45;;;;;;;5.40;2.03;;;;;;;-1.19;100.00;101103.53;5024845;28;20045;-44
2024/01/19 05:10:13;;;;;;;5.50;1.65;;;;;;;-1.15;100.00;101104.66;5046307;28;20056;-47
2024/01/19 05:12:40;;;;;;;2.40;1.55;;;;;;;-1.12;100.00;101098.72;5045735;28;20041;-45
2024/01/19 05:15:08;;;;;;;7.53;1.65;;;;;;;-1.10;100.00;101088.41;5046639;28;20407;-47
2024/01/19 05:17:35;;;;;;;6.30;1.70;;;;;;;-1.07;100.00;101090.59;5044909;28;20518;-46
2024/01/19 05:20:03;;;;;;;1.73;1.05;;;;;;;-1.05;100.00;101080.28;5026463;28;20045;-46
2024/01/19 05:22:30;;;;;;;3.97;1.23;;;;;;;-1.01;100.00;101086.84;5046648;28;20049;-48
2024/01/19 05:24:58;;;;;;;4.10;1.42;;;;;;;-1.00;100.00;101087.63;5012958;28;20057;-49
2024/01/19 05:27:25;;;;;;;4.15;1.50;;;;;;;-0.99;100.00;101083.84;5046596;28;20099;-46
2024/01/19 05:29:52;;;;;;;7.15;1.65;;;;;;;-0.98;100.00;101085.50;5046772;28;20049;-48
2024/01/19 05:32:20;;;;;;;11.85;1.55;;;;;;;-0.96;100.00;101083.34;5008565;28;20049;-45
2024/01/19 05:34:47;;;;;;;6.57;1.48;;;;;;;-0.95;100.00;101085.78;5039761;28;20049;-49
2024/01/19 05:37:15;;;;;;;1.98;1.27;;;;;;;-0.95;100.00;101077.63;5046593;28;20060;-45
2024/01/19 05:39:42;;;;;;;4.85;1.40;;;;;;;-0.94;100.00;101071.13;5045073;28;20037;-46
2024/01/19 05:42:10;;;;;;;3.30;1.20;;;;;;;-0.94;100.00;101079.28;5045676;28;20411;-44
2024/01/19 05:44:41;;;;;;;1.90;1.08;;;;;;;-0.93;100.00;101074.66;5046083;28;20053;-45
2024/01/19 05:47:08;;;;;;;5.10;2.42;;;;;;;-0.94;100.00;101084.72;5034852;28;20049;-48
2024/01/19 05:49:35;;;;;;;2.15;1.10;;;;;;;-0.94;100.00;101082.00;5046966;28;20057;-50
2024/01/19 05:52:03;;;;;;;2.85;1.20;;;;;;;-0.93;100.00;101075.50;5037296;28;20076;-46
2024/01/19 05:54:33;;;;;;;3.08;1.05;;;;;;;-0.91;100.00;101078.75;5035703;28;20048;-48
2024/01/19 05:57:00;;;;;;;3.15;1.10;;;;;;;-0.89;100.00;101076.59;5046510;28;20044;-45
2024/01/19 05:59:29;;;;;;;6.38;1.17;;;;;;;-0.85;100.00;101082.34;5042537;28;20106;-48
2024/01/19 06:01:57;;;;;;;2.05;0.95;;;;;;;-0.83;100.00;101091.88;5045141;28;20499;-44
2024/01/19 06:04:24;;;;;;;3.60;1.15;;;;;;;-0.81;100.00;101081.53;5046607;28;20057;-50
2024/01/19 06:06:51;;;;;;;2.35;0.80;;;;;;;-0.78;100.00;101085.63;5046668;28;20071;-45
2024/01/19 06:09:19;;;;;;;4.13;1.10;;;;;;;-0.77;100.00;101085.34;5045615;28;20048;-48
2024/01/19 06:11:46;;;;;;;11.27;1.83;;;;;;;-0.73;100.00;101081.06;5046034;28;20495;-51
2024/01/19 06:14:14;;;;;;;3.50;1.02;;;;;;;-0.72;100.00;101087.31;5043931;28;20602;-45
2024/01/19 06:16:41;;;;;;;2.75;1.08;;;;;;;-0.71;100.00;101081.59;5032479;28;20042;-44
2024/01/19 06:19:08;;;;;;;3.08;1.05;;;;;;;-0.68;100.00;101094.69;5042439;28;20045;-49
2024/01/19 06:21:36;;;;;;;4.53;0.98;;;;;;;-0.68;100.00;101091.13;5045630;28;20049;-50
2024/01/19 06:24:03;;;;;;;5.32;1.20;;;;;;;-0.68;100.00;101089.22;5028123;28;20056;-53
2024/01/19 06:26:32;;;;;;;3.40;1.98;;;;;;;-0.65;100.00;101087.88;5045860;28;20561;-45
2024/01/19 06:29:00;;;;;;;5.05;1.30;;;;;;;-0.63;100.00;101089.25;5045484;28;20040;-45
2024/01/19 06:31:27;;;;;;;8.52;2.47;;;;;;;-0.61;100.00;101078.16;5028166;28;20049;-49
2024/01/19 06:33:55;;;;;;;4.47;1.40;;;;;;;-0.61;100.00;101087.09;5045695;28;20531;-47
2024/01/19 06:36:22;;;;;;;2.58;0.68;;;;;;;-0.61;100.00;101073.50;5046439;28;20048;-44
2024/01/19 06:38:54;;;;;;;1.42;0.88;;;;;;;-0.59;100.00;101075.16;5046164;28;20041;-47
2024/01/19 06:41:21;;;;;;;0.95;0.65;;;;;;;-0.58;100.00;101065.91;5045506;28;20053;-47
2024/01/19 06:43:49;;;;;;;2.17;1.05;;;;;;;-0.57;100.00;101078.41;5045804;28;20052;-48
2024/01/19 06:46:16;;;;;;;1.27;1.00;;;;;;;-0.57;100.00;101075.69;5046282;28;20049;-48
2024/01/19 06:48:43;;;;;;;4.15;1.13;;;;;;;-0.58;100.00;101071.34;5033708;28;20747;-46
2024/01/19 06:51:20;;;;;;;1.40;0.88;;;;;;;-0.58;100.00;101061.28;5045861;28;20056;-48
2024/01/19 06:53:47;;;;;;;5.93;1.35;;;;;;;-0.58;100.00;101068.63;5043278;28;20106;-50
2024/01/19 06:56:14;;;;;;;4.70;1.23;;;;;;;-0.61;100.00;101067.28;5046358;28;20041;-51
2024/01/19 06:58:41;;;;;;;1.92;1.30;;;;;;;-0.62;100.00;101065.63;5048985;28;20061;-48
2024/01/19 07:01:10;;;;;;;3.25;1.08;;;;;;;-0.64;100.00;101065.88;5049471;28;20537;-45
2024/01/19 07:03:37;;;;;;;3.85;1.15;;;;;;;-0.67;100.00;101069.13;5048874;28;20048;-48
2024/01/19 07:06:05;;;;;;;2.13;0.60;;;;;;;-0.69;100.00;101071.28;5049021;28;20060;-47
2024/01/19 07:08:32;;;;;;;3.55;1.48;;;;;;;-0.71;100.00;101084.31;5049490;28;20051;-47
2024/01/19 07:11:00;;;;;;;3.88;0.68;;;;;;;-0.70;100.00;101077.00;5049501;28;20053;-45
2024/01/19 07:13:27;;;;;;;3.45;0.82;;;;;;;-0.72;100.00;101076.44;5048896;28;20055;-53
2024/01/19 07:15:54;;;;;;;2.80;1.00;;;;;;;-0.73;100.00;101078.34;5047060;28;20687;-46
2024/01/19 07:18:22;;;;;;;2.85;0.95;;;;;;;-0.74;100.00;101076.69;5022837;28;20045;-44
2024/01/19 07:20:49;;;;;;;1.63;0.82;;;;;;;-0.73;100.00;101074.78;5048743;28;20053;-46
2024/01/19 07:23:17;;;;;;;0.88;0.70;;;;;;;-0.74;100.00;101073.13;5048413;28;20502;-44
2024/01/19 07:25:44;;;;;;;3.60;1.35;;;;;;;-0.71;100.00;101068.00;5028767;28;20045;-50
2024/01/19 07:28:12;;;;;;;1.90;0.90;;;;;;;-0.72;100.00;101066.38;5048880;28;20672;-47
2024/01/19 07:30:39;;;;;;;2.38;0.80;;;;;;;-0.73;100.00;101064.75;5030531;28;20041;-51
2024/01/19 07:33:07;;;;;;;4.05;1.13;;;;;;;-0.73;100.00;101080.22;5047765;28;20052;-48
2024/01/19 07:35:42;;;;;;;2.65;0.98;;;;;;;-0.77;100.00;101069.06;5035733;28;20754;-45
2024/01/19 07:38:09;;;;;;;1.67;0.82;;;;;;;-0.78;100.00;101070.16;5048057;28;20411;-46
2024/01/19 07:40:37;;;;;;;3.97;1.10;;;;;;;-0.79;100.00;101070.38;5048709;28;20070;-47
2024/01/19 07:43:04;;;;;;;1.95;1.02;;;;;;;-0.81;100.00;101078.00;5049343;28;20796;-45
2024/01/19 07:45:31;;;;;;;5.18;1.38;;;;;;;-0.81;100.00;101078.81;5014669;28;20045;-47
2024/01/19 07:47:59;;;;;;;4.15;1.20;;;;;;;-0.80;100.00;101083.19;5048755;28;20053;-50
2024/01/19 07:50:26;;;;;;;1.95;0.63;;;;;;;-0.78;100.00;101078.31;5048494;28;20049;-50
2024/01/19 07:52:54;;;;;;;2.38;0.80;;;;;;;-0.78;100.00;101089.19;5047977;28;20056;-49
2024/01/19 07:55:21;;;;;;;3.50;1.08;;;;;;;-0.79;100.00;101084.81;5028574;28;20056;-46
2024/01/19 07:57:48;;;;;;;1.17;1.05;;;;;;;-0.80;100.00;101079.66;5047911;28;20044;-47
2024/01/19 08:00:16;;;;;;;8.75;1.58;;;;;;;-0.80;100.00;101080.47;5028669;28;20060;-44
2024/01/19 08:02:45;;;;;;;4.53;1.27;;;;;;;-0.82;100.00;101077.16;5025975;28;20037;-49
2024/01/19 08:05:13;;;;;;;1.40;1.00;;;;;;;-0.84;100.00;101084.78;5029840;28;20045;-47
2024/01/19 08:07:41;;;;;;;2.05;1.00;;;;;;;-0.86;100.00;101086.13;5034823;28;20066;-47
2024/01/19 08:10:08;;;;;;;5.53;1.00;;;;;;;-0.89;100.00;101090.19;5041252;28;20513;-48
2024/01/19 08:12:35;;;;;;;2.28;1.20;;;;;;;-0.94;100.00;101084.72;5029521;28;20060;-47
2024/01/19 08:15:03;;;;;;;3.88;0.85;;;;;;;-0.98;100.00;101091.72;5043047;28;20046;-44
2024/01/19 08:17:30;;;;;;;9.80;2.35;;;;;;;-1.04;100.00;101083.81;5034649;28;20049;-46
2024/01/19 08:19:59;;;;;;;2.15;0.90;;;;;;;-1.10;100.00;101085.69;5046226;28;20048;-45
2024/01/19 08:22:28;;;;;;;2.70;1.13;;;;;;;-1.15;100.00;101085.63;5046535;28;20059;-48
2024/01/19 08:24:55;;;;;;;3.25;1.23;;;;;;;-1.14;100.00;101098.16;5043819;28;20047;-48
2024/01/19 08:27:23;;;;;;;5.60;1.80;;;;;;;-1.13;100.00;101088.09;5045880;28;20045;-49
2024/01/19 08:29:50;;;;;;;4.07;1.40;;;;;;;-1.12;100.00;101095.16;5026217;28;20037;-49
2024/01/19 08:32:18;;;;;;;5.18;2.13;;;;;;;-1.11;100.00;101102.25;5037826;28;20045;-46
2024/01/19 08:34:45;;;;;;;3.75;2.10;;;;;;;-1.08;100.00;101105.25;5042132;28;20040;-46
2024/01/19 08:37:13;;;;;;;2.80;1.20;;;;;;;-1.07;100.00;101112.34;5046812;28;20779;-43
2024/01/19 08:39:41;;;;;;;3.05;1.65;;;;;;;-1.05;100.00;101106.63;5046033;28;20833;-48
2024/01/19 08:42:08;;;;;;;4.50;1.48;;;;;;;-1.04;100.00;101103.66;5043721;28;20392;-51
2024/01/19 08:44:36;;;;;;;4.47;1.70;;;;;;;-1.02;100.00;101101.50;5034662;28;20048;-48
2024/01/19 08:47:03;;;;;;;2.03;1.13;;;;;;;-0.99;100.00;101109.13;5023825;28;20045;-51
2024/01/19 08:49:30;;;;;;;5.18;1.13;;;;;;;-0.96;100.00;101113.22;5046731;28;20055;-46
2024/01/19 08:51:58;;;;;;;7.20;1.88;;;;;;;-0.95;100.00;101112.97;5041327;28;20047;-49
2024/01/19 08:54:25;;;;;;;3.35;1.00;;;;;;;-0.95;100.00;101115.69;5046743;28;20045;-49
2024/01/19 08:56:54;;;;;;;3.88;1.20;;;;;;;-0.92;100.00;101114.34;5040279;28;20428;-49
2024/01/19 08:59:25;;;;;;;;;;;;;;;-0.89;100.00;101114.63;5031358;28;20053;-46
2024/01/19 09:01:56;;;;;;;5.82;1.15;;;;;;;-0.85;100.00;101112.22;5047282;28;19925;-47
2024/01/19 09:04:24;;;;;;;4.85;1.75;;;;;;;-0.82;100.00;101111.72;5026774;28;20061;-50
2024/01/19 09:06:53;;;;;;;5.75;1.55;;;;;;;-0.79;100.00;101113.88;5043299;28;20041;-49
2024/01/19 09:09:21;;;;;;;2.28;1.10;;;;;;;-0.77;100.00;101112.53;5040826;28;20056;-50
2024/01/19 09:11:48;;;;;;;6.90;0.90;;;;;;;-0.75;100.00;101121.28;5046206;28;20553;-45
2024/01/19 09:14:16;;;;;;;4.88;1.30;;;;;;;-0.72;100.00;101119.94;5035316;28;20037;-49
2024/01/19 09:16:44;;;;;;;4.60;1.10;;;;;;;-0.71;100.00;101122.38;5044503;28;20044;-48
2024/01/19 09:19:12;;;;;;;2.30;1.00;;;;;;;-0.68;100.00;101115.59;5046163;28;20044;-50
2024/01/19 09:21:40;;;;;;;3.15;1.38;;;;;;;-0.66;100.00;101119.69;5028737;28;20052;-45
2024/01/19 09:24:09;;;;;;;2.03;1.00;;;;;;;-0.65;100.00;101121.34;5047100;28;20136;-49
2024/01/19 09:26:39;;;;;;;4.80;0.88;;;;;;;-0.65;100.00;101124.06;5044600;28;20514;-46
2024/01/19 09:29:08;;;;;;;4.32;1.13;;;;;;;-0.62;100.00;101120.81;5045357;28;20526;-47
2024/01/19 09:31:44;;;;;;;1.02;0.90;;;;;;;-0.59;100.00;101119.47;5046793;28;20562;-48
2024/01/19 09:34:12;;;;;;;2.28;1.13;;;;;;;-0.56;100.00;101129.00;5034908;28;20052;-46
2024/01/19 09:36:40;;;;;;;3.70;1.40;;;;;;;-0.51;100.00;101137.19;5046197;28;20056;-47
2024/01/19 09:39:09;;;;;;;5.05;1.55;;;;;;;-0.47;100.00;101141.84;5046982;28;20045;-50
2024/01/19 09:41:39;;;;;;;3.60;1.40;;;;;;;-0.45;100.00;101134.22;5044706;28;20384;-47
2024/01/19 09:44:11;;;;;;;3.17;1.15;;;;;;;-0.39;100.00;101135.06;5027998;28;20037;-49
2024/01/19 09:47:05;;;;;;;2.97;1.35;;;;;;;-0.33;100.00;101143.03;5045408;28;20064;-52
2024/01/19 09:50:12;;;;;;;2.78;2.08;;;;;;;-0.26;100.00;101145.50;5044932;28;20049;-50
2024/01/19 09:52:49;;;;;;;1.98;1.13;;;;;;;-0.21;100.00;101145.50;4998966;28;20072;-47
2024/01/19 09:55:17;;;;;;;2.30;1.05;;;;;;;-0.18;100.00;101142.28;5033815;28;20041;-50
2024/01/19 09:57:47;;;;;;;5.93;1.20;;;;;;;-0.13;100.00;101145.84;5045054;28;20045;-50
2024/01/19 10:00:17;;;;;;;4.40;1.83;;;;;;;-0.07;100.00;101144.78;5046258;28;20045;-49
2024/01/19 10:02:53;;;;;;;4.55;1.08;;;;;;;-0.04;100.00;101129.81;5045744;28;20068;-50
2024/01/19 10:05:21;;;;;;;3.13;1.15;;;;;;;0.01;100.00;101135.28;5036353;28;20045;-48
2024/01/19 10:07:55;;;;;;;5.60;1.95;;;;;;;0.05;100.00;101136.41;5044504;28;20041;-45
2024/01/19 10:10:24;;;;;;;2.92;1.23;;;;;;;0.11;100.00;101138.03;5044921;28;20053;-50
2024/01/19 10:12:51;;;;;;;2.00;0.90;;;;;;;0.17;100.00;101139.72;5045274;28;20063;-47
2024/01/19 10:15:19;;;;;;;4.95;1.20;;;;;;;0.22;100.00;101126.13;5044092;28;20079;-47
2024/01/19 10:17:47;;;;;;;1.42;1.17;;;;;;;0.28;100.00;101135.94;5045222;28;20053;-46
2024/01/19 10:20:16;;;;;;;7.25;1.30;;;;;;;0.34;100.00;101140.31;5045441;28;20395;-46
2024/01/19 10:22:43;;;;;;;4.20;1.52;;;;;;;0.41;100.00;101137.34;5045564;28;20049;-49
2024/01/19 10:25:13;;;;;;;4.82;1.20;;;;;;;0.46;100.00;101135.44;5045153;28;20052;-49
2024/01/19 10:27:51;;;;;;;5.60;1.20;;;;;;;0.53;100.00;101138.72;5045235;28;20041;-45
2024/01/19 10:30:29;;;;;;;3.95;1.40;;;;;;;0.60;100.00;101139.31;5046465;28;20041;-46
2024/01/19 10:33:05;;;;;;;3.10;1.50;;;;;;;0.68;100.00;101145.28;5047914;28;20047;-46
2024/01/19 10:35:34;;;;;;;5.30;1.67;;;;;;;0.72;100.00;101146.38;5046236;28;20049;-49
2024/01/19 10:38:07;;;;;;;4.68;1.80;;;;;;;0.76;100.00;101131.97;5049348;28;20041;-46
2024/01/19 10:40:35;;;;;;;1.35;1.02;;;;;;;0.79;100.00;101131.44;5048250;28;20049;-50
2024/01/19 10:43:03;;;;;;;3.10;1.55;;;;;;;0.85;100.00;101129.53;5048526;28;20507;-47
2024/01/19 10:45:34;;;;;;;3.13;0.90;;;;;;;0.92;100.00;101127.34;5049668;28;20571;-48
2024/01/19 10:48:05;;;;;;;2.90;1.83;;;;;;;0.98;100.00;101129.00;5048196;28;20041;-49
2024/01/19 10:50:33;;;;;;;4.03;0.80;;;;;;;1.01;100.00;101117.50;5048234;28;20051;-45
2024/01/19 10:53:03;;;;;;;2.80;1.02;;;;;;;1.06;100.00;101131.97;5048632;28;20061;-46
2024/01/19 10:55:31;;;;;;;4.07;1.20;;;;;;;1.11;100.00;101123.00;5049103;28;20053;-47
2024/01/19 10:58:04;;;;;;;2.63;0.88;;;;;;;1.16;100.00;101117.53;5048828;28;20056;-48
2024/01/19 11:00:36;;;;;;;2.63;1.17;;;;;;;1.19;100.00;101125.97;5048035;28;20052;-51
2024/01/19 11:03:03;;;;;;;5.85;1.45;;;;;;;1.20;100.00;101127.59;5049087;28;20399;-47
2024/01/19 11:05:32;;;;;;;2.90;1.17;;;;;;;1.24;100.00;101133.34;5049097;28;20052;-45
2024/01/19 11:08:02;;;;;;;1.92;0.90;;;;;;;1.27;100.00;101127.34;5030946;28;20503;-51
2024/01/19 11:10:31;;;;;;;1.70;0.52;;;;;;;1.29;100.00;101127.06;5041492;28;20072;-53
2024/01/19 11:13:01;;;;;;;1.30;1.08;;;;;;;1.33;100.00;101130.84;5047737;28;20056;-48
2024/01/19 11:15:35;;;;;;;2.53;0.93;;;;;;;1.36;100.00;101131.13;5030782;28;20101;-52
2024/01/19 11:18:04;;;;;;;2.40;0.57;;;;;;;1.38;100.00;101126.22;5046769;28;20040;-49
2024/01/19 11:20:33;;;;;;;3.40;0.90;;;;;;;1.41;100.00;101117.47;5048260;28;20506;-48
2024/01/19 11:23:03;;;;;;;1.42;0.70;;;;;;;1.43;99.98;101128.94;5029721;28;20045;-47